Crestview, FL

8:54 PM CDT on May 26, 2015 (GMT -0500)
Hurlburt | | Change Station
CLOSE
Current Station
Airport
Location: Hurlburt Field,
Elevation: 39 ft
Nearby Weather Stations

Elev 39 ft 30.43 °N, 86.69 °W | Updated 56 minutes ago

Overcast
Overcast
74 °F
Feels Like 74 °F
N
6
Wind Variable Wind from North

Today
High -- | Low -- °F
--% Chance of Precip.
Yesterday
High -- | Low -- °F
Precip. -- in
5:45 AM 7:41 PM
Waxing Gibbous, 63% visible
Pressure 30.14 in
Visibility 10.0 miles
Clouds Few 1600 ft
Scattered Clouds 2100 ft
Mostly Cloudy 16000 ft
Dew Point 69 °F
Humidity 86%
Rainfall 0.66 in
Snow Depth Not available.
UV 0 out of 12
Pollen 4.80 out of 12
Air Quality Not available.
Flu Activity Sporadic
METAR KHRT 270058Z 01005KT 10SM FEW016 SCT021 BKN160 23/21 A3013 RMK AO2A RAE00DZB00E10 SLP205 P0000 T02330208 $

More Conditions Fewer Conditions

Pressure 30.14 in
Visibility 10.0 miles
Clouds Few 1600 ft
Scattered Clouds 2100 ft
Mostly Cloudy 16000 ft
Dew Point 69 °F
Humidity 86%
Rainfall 0.66 in
Snow Depth Not available.
UV 0 out of 12
Pollen 4.80 out of 12
Air Quality Not available.
Flu Activity Sporadic
METAR KHRT 270058Z 01005KT 10SM FEW016 SCT021 BKN160 23/21 A3013 RMK AO2A RAE00DZB00E10 SLP205 P0000 T02330208 $

More Conditions Fewer Conditions

10-Day Weather Forecast

Almanac

Astronomy

May. 26, 2015 Rise Set
Actual Time
Civil Twilight
Nautical Twilight
Astronomical Twilight
Moon
Length of Visible Light
Length of Day
Tomorrow will be .
, % of the Moon is Illuminated

Today's Extremes

State Highs State Lows

Community

WunderPhotos

Upload Photos

1,824,549 photos uploaded!

WunderBlogs® & News

Nearby

Air Quality

  Air Quality AQ Index Pollutant
Not available.

Snow Depth

Station Depth Elevation

Earthquake Activity

City Distance Mag. Time & Date
Minimum magnitude displayed is 2.5.

Coastal Water Temperatures

Place Temperature

Stations

Nearby Weather Stations

Station Location Temp. Windchill Dew Point Humidity Wind Precip. Elev Updated Type